Flight Track Log - Related Links

Times and Time Zones

All times are in EDT time to prevent confusion due to time zone crossing. See the N53NW flight status page for this flight to view local times or setup timezone preferences in your user account.

Time Position Orientation Groundspeed Altitude Reporting Facility
EDT Latitude Longitude Course Direction KTS MPH feet Rate Location/Type
Thu 05:28:58 PM 35.5500 -97.6483 13° North 174 200 2,400  Level Fort Worth Center
Thu 05:29:35 PM 35.5853 -97.6381 13° North 224 258 4,700 3,551 Climbing Fort Worth Center
Thu 05:30:36 PM 35.6083 -97.5617 70° East 273 314 8,200 3,249 Climbing Fort Worth Center
Thu 05:33:00 PM 35.6242 -97.3217 85° East 304 350 15,800 2,942 Climbing Kansas City Center
Thu 05:34:02 PM 35.6244 -97.2092 90° East 321 369 18,300 2,565 Climbing Kansas City Center
Thu 05:35:04 PM 35.6294 -97.0936 87° East 333 383 21,100 2,661 Climbing Kansas City Center
Thu 05:36:06 PM 35.6539 -96.9803 75° East 356 410 23,800 2,516 Climbing Kansas City Center
Thu 05:37:08 PM 35.7003 -96.8792 61° Northeast 345 397 26,300 2,419 Climbing Kansas City Center
Thu 05:38:10 PM 35.7489 -96.7725 61° Northeast 353 406 28,800 2,448 Climbing Kansas City Center
Thu 05:39:13 PM 35.8075 -96.6444 61° Northeast 357 411 31,400 2,016 Climbing Kansas City Center
Thu 05:40:15 PM 35.8581 -96.5350 60° Northeast 365 420 33,000 774 Climbing Kansas City Center
Thu 05:41:17 PM 35.9164 -96.4058 61° Northeast 398 458 33,000  Level Kansas City Center
Thu 05:42:19 PM 35.9753 -96.2767 61° Northeast 425 489 33,000  Level Kansas City Center
Thu 05:43:21 PM 36.0339 -96.1492 60° Northeast 427 491 33,000  Level Kansas City Center
Thu 05:44:23 PM 36.0906 -96.0217 61° Northeast 425 489 33,000  Level Kansas City Center
Thu 05:45:25 PM 36.1486 -95.8947 60° Northeast 424 488 33,000  Level Kansas City Center
Thu 05:46:27 PM 36.2064 -95.7475 64° Northeast 427 491 33,000  Level Kansas City Center
Thu 05:47:29 PM 36.2353 -95.6042 76° East 430 495 33,000 290 Level Kansas City Center
Thu 05:48:31 PM 36.2664 -95.4606 75° East 433 498 33,600 1,161 Climbing Kansas City Center
Thu 05:49:33 PM 36.2944 -95.3189 76° East 428 493 35,400 1,161 Climbing Kansas City Center
Thu 05:50:35 PM 36.3247 -95.1814 75° East 419 482 36,000 1,210 Climbing Kansas City Center
Thu 05:51:37 PM 36.3625 -95.0058 75° East 429 494 37,900 1,548 Climbing Kansas City Center
Thu 05:52:39 PM 36.3906 -94.8697 76° East 417 480 39,200 1,113 Climbing Kansas City Center
Thu 05:53:41 PM 36.4194 -94.7325 75° East 411 473 40,200 871 Climbing Kansas City Center
Thu 05:54:43 PM 36.4478 -94.5928 76° East 414 476 41,000 387 Climbing Kansas City Center
Thu 05:55:45 PM 36.4767 -94.4492 76° East 423 487 41,000  Level Kansas City Center
Thu 05:56:47 PM 36.5061 -94.3017 76° East 435 501 41,000  Level Kansas City Center
Thu 05:57:49 PM 36.5428 -94.1244 76° East 440 506 41,000  Level Kansas City Center
Thu 05:58:51 PM 36.5731 -93.9764 76° East 442 509 41,000  Level Kansas City Center
Thu 05:59:29 PM 36.5914 -93.8867 76° East 442 509 41,000  Level Kansas City Center
Thu 06:00:31 PM 36.6172 -93.7536 76° East 444 511 41,000  Level Kansas City Center
Thu 06:01:33 PM 36.6525 -93.5750 76° East 444 511 41,000  Level Kansas City Center
Thu 06:02:35 PM 36.6808 -93.4267 77° East 442 509 41,000  Level Kansas City Center
Thu 06:03:37 PM 36.7097 -93.2786 76° East 440 506 41,000  Level Kansas City Center
Thu 06:04:39 PM 36.7394 -93.1286 76° East 443 510 41,000  Level Kansas City Center
Thu 06:05:41 PM 36.7706 -92.9617 77° East 445 512 41,000  Level Kansas City Center
Thu 06:06:43 PM 36.7989 -92.8092 77° East 449 517 41,000  Level Kansas City Center
Thu 06:07:45 PM 36.8275 -92.6567 77° East 450 518 41,000  Level Kansas City Center
Thu 06:08:47 PM 36.8553 -92.5042 77° East 451 519 41,000  Level Kansas City Center
Thu 06:09:49 PM 36.8839 -92.3506 77° East 453 521 41,000  Level Kansas City Center
Thu 06:10:51 PM 36.9175 -92.1675 77° East 452 520 41,000  Level Kansas City Center
Thu 06:11:53 PM 36.9458 -92.0133 77° East 453 521 41,000  Level Kansas City Center
Thu 06:12:55 PM 36.9739 -91.8603 77° East 453 521 41,000  Level Kansas City Center
Thu 06:13:57 PM 37.0003 -91.7103 78° East 447 514 41,000  Level Kansas City Center
Thu 06:14:59 PM 37.0250 -91.5575 78° East 446 513 41,000  Level Kansas City Center
Thu 06:16:01 PM 37.0533 -91.4011 77° East 455 524 41,000  Level Kansas City Center
Thu 06:17:03 PM 37.0856 -91.2131 78° East 459 528 41,000  Level Kansas City Center
Thu 06:18:05 PM 37.1142 -91.0547 77° East 463 533 41,000  Level Kansas City Center
Thu 06:19:07 PM 37.1411 -90.8975 78° East 463 533 41,000  Level Kansas City Center
Thu 06:20:09 PM 37.1681 -90.7517 77° East 465 535 41,000  Level Kansas City Center
Thu 06:21:11 PM 37.1950 -90.5939 78° East 462 532 41,000  Level Kansas City Center
Thu 06:22:13 PM 37.2261 -90.4044 78° East 461 531 41,000  Level Kansas City Center
Thu 06:23:15 PM 37.2522 -90.2447 78° East 463 533 41,000  Level Kansas City Center
Thu 06:24:17 PM 37.2789 -90.0836 78° East 466 536 41,000  Level Kansas City Center
Thu 06:25:20 PM 37.3061 -89.9239 78° East 467 537 41,000  Level Kansas City Center
Thu 06:26:22 PM 37.3331 -89.7622 78° East 468 539 41,000  Level Kansas City Center
Thu 06:27:24 PM 37.3589 -89.5992 79° East 470 541 41,000  Level Kansas City Center
Thu 06:28:26 PM 37.3850 -89.4361 79° East 472 543 41,000  Level Kansas City Center
Thu 06:29:28 PM 37.4153 -89.2314 79° East 486 559 41,000  Level Kansas City Center
Thu 06:30:30 PM 37.4406 -89.0681 79° East 481 554 41,000  Level Kansas City Center
Thu 06:31:32 PM 37.4681 -88.9047 78° East 475 547 41,000  Level Kansas City Center
Thu 06:32:34 PM 37.4925 -88.7358 80° East 484 557 41,000  Level Kansas City Center
Thu 06:33:36 PM 37.5181 -88.5689 79° East 485 558 41,000  Level Kansas City Center
Thu 06:34:15 PM 37.5297 -88.4675 82° East 489 563 41,000  Level Indianapolis Center
Thu 06:35:17 PM 37.5597 -88.2658 79° East 488 562 41,000  Level Indianapolis Center
Thu 06:36:19 PM 37.5817 -88.1167 79° East 489 563 41,000  Level Indianapolis Center
Thu 06:37:21 PM 37.6211 -87.9214 76° East 489 563 41,000 -387 Level Indianapolis Center
Thu 06:38:23 PM 37.6575 -87.7531 75° East 491 565 40,200 -1,306 Descending Indianapolis Center
Thu 06:39:25 PM 37.6944 -87.5836 75° East 496 571 38,300 -1,935 Descending Indianapolis Center
Thu 06:40:27 PM 37.7292 -87.4150 75° East 493 567 36,200 -1,984 Descending Indianapolis Center
Thu 06:41:29 PM 37.7631 -87.2550 75° East 475 547 34,200 -2,081 Descending Indianapolis Center
Thu 06:42:31 PM 37.7986 -87.0844 75° East 464 534 31,900 -2,177 Descending Indianapolis Center
Thu 06:43:33 PM 37.8319 -86.9272 75° East 463 533 29,700 -2,177 Descending Indianapolis Center
Thu 06:44:35 PM 37.8653 -86.7681 75° East 467 537 27,400 -2,226 Descending Indianapolis Center
Thu 06:45:37 PM 37.8981 -86.6069 75° East 473 544 25,100 -2,081 Descending Indianapolis Center
Thu 06:46:39 PM 37.9297 -86.4492 76° East 468 539 23,100 -1,016 Descending Indianapolis Center
Thu 06:47:41 PM 37.9678 -86.2642 75° East 455 524 23,000 -48 Descending Indianapolis Center
Thu 06:48:43 PM 37.9983 -86.1086 76° East 455 524 23,000 -919 Level Indianapolis Center
Thu 06:49:45 PM 38.0303 -85.9533 75° East 456 525 21,100 -2,226 Descending Indianapolis Center
Thu 06:50:47 PM 38.0586 -85.8047 76° East 438 504 18,400 -2,448 Descending Indianapolis Center
Thu 06:51:50 PM 38.0892 -85.6703 74° East 406 467 16,000 -1,632 Descending Indianapolis Center
Thu 06:52:52 PM 38.1022 -85.5522 82° East 353 406 15,000 -484 Descending Indianapolis Center
Thu 06:53:54 PM 38.0936 -85.4281 95° East 352 405 15,000 -339 Level Indianapolis Center
Thu 06:54:56 PM 38.0844 -85.2783 94° East 353 406 14,300 -1,403 Descending Indianapolis Center
Thu 06:55:58 PM 38.0778 -85.1658 94° East 339 390 12,100 -1,597 Descending Indianapolis Center
Thu 06:57:00 PM 38.0725 -85.0547 93° East 320 368 11,000 -1,355 Descending Indianapolis Center
Thu 06:58:02 PM 38.0889 -84.9358 80° East 298 343 9,300 -1,742 Descending Indianapolis Center
Thu 06:59:04 PM 38.1161 -84.8378 71° East 295 339 7,400 -1,984 Descending Indianapolis Center
Thu 07:00:06 PM 38.1431 -84.7503 69° East 280 322 5,200 -1,887 Descending Indianapolis Center
Thu 07:01:08 PM 38.1314 -84.6561 99° East 279 321 3,500 -1,065 Descending Indianapolis Center
Thu 07:02:10 PM 38.1025 -84.5889 119° Southeast 243 280 3,000 -677 Descending Indianapolis Center
Thu 07:03:12 PM 38.0642 -84.5633 152° Southeast 177 204 2,100 -871 Descending Indianapolis Center
Thu 07:05:00 PM 38.0333 -84.6000 191° South  Level FlightAware Approximate
Thu 07:12:00 PM 38.0368 -84.6086 191° South  Level Estimated

Login

Don't have an account? Register now (free) for customized features, flight alerts, and more!